createdAt,value
2023-05-05T00:00:16.226Z,6.68
2023-05-05T00:03:21.101Z,6.30
2023-05-05T00:06:24.979Z,10.48
2023-05-05T00:09:26.636Z,9.52
2023-05-05T00:12:32.581Z,10.05
2023-05-05T00:15:36.523Z,14.38
2023-05-05T00:18:40.252Z,6.53
2023-05-05T00:21:45.664Z,10.82
2023-05-05T00:24:47.358Z,6.10
2023-05-05T00:27:49.248Z,9.20
2023-05-05T00:30:51.291Z,5.78
2023-05-05T00:33:53.140Z,8.35
2023-05-05T00:36:54.867Z,7.37
2023-05-05T00:39:56.838Z,13.62
2023-05-05T00:42:59.719Z,9.52
2023-05-05T00:46:09.832Z,6.75
2023-05-05T00:49:12.301Z,7.97
2023-05-05T00:52:14.278Z,14.68
2023-05-05T00:55:16.358Z,8.80
2023-05-05T00:58:18.386Z,6.80
2023-05-05T01:01:20.303Z,10.32
2023-05-05T01:04:22.204Z,6.60
2023-05-05T01:07:48.516Z,5.80
2023-05-05T01:10:58.742Z,6.68
2023-05-05T01:14:13.786Z,7.22
2023-05-05T01:17:22.341Z,8.73
2023-05-05T01:20:33.188Z,10.38
2023-05-05T01:23:56.189Z,7.62
2023-05-05T01:27:22.292Z,6.78
2023-05-05T01:30:42.650Z,6.55
2023-05-05T01:33:58.276Z,10.88
2023-05-05T01:37:07.596Z,12.43
2023-05-05T01:40:12.330Z,7.85
2023-05-05T01:43:18.295Z,6.07
2023-05-05T01:46:22.121Z,7.68
2023-05-05T01:49:24.633Z,6.40
2023-05-05T01:52:28.017Z,9.40
2023-05-05T01:55:32.436Z,7.18
2023-05-05T01:58:36.415Z,7.72
2023-05-05T02:01:41.794Z,11.27
2023-05-05T02:04:44.989Z,7.60
2023-05-05T02:07:46.893Z,7.95
2023-05-05T02:10:50.275Z,6.93
2023-05-05T02:13:53.592Z,5.78
2023-05-05T02:16:58.478Z,4.87
2023-05-05T02:20:04.041Z,8.90
2023-05-05T02:23:07.960Z,6.78
2023-05-05T02:26:12.875Z,5.93
2023-05-05T02:29:21.410Z,12.90
2023-05-05T02:32:31.458Z,19.70
2023-05-05T02:35:40.262Z,8.68
2023-05-05T02:38:45.398Z,7.43
2023-05-05T02:41:49.597Z,5.78
2023-05-05T02:44:53.997Z,7.40
2023-05-05T02:47:56.025Z,7.80
2023-05-05T02:50:57.753Z,8.68
2023-05-05T02:54:00.229Z,6.87
2023-05-05T02:57:02.468Z,6.70
2023-05-05T03:00:27.972Z,7.28
2023-05-05T03:03:52.099Z,7.43
2023-05-05T03:06:59.108Z,6.90
2023-05-05T03:10:08.626Z,7.15
2023-05-05T03:13:12.156Z,8.95
2023-05-05T03:16:18.319Z,10.32
2023-05-05T03:19:21.423Z,8.68
2023-05-05T03:22:23.251Z,7.18
2023-05-05T03:25:45.452Z,10.68
2023-05-05T03:28:48.241Z,8.63
2023-05-05T03:31:50.015Z,5.37
2023-05-05T03:34:51.776Z,8.27
2023-05-05T03:37:55.543Z,10.27
2023-05-05T03:40:57.336Z,6.40
2023-05-05T03:43:59.241Z,9.05
2023-05-05T03:47:00.930Z,11.45
2023-05-05T03:50:02.672Z,23.62
2023-05-05T03:53:04.412Z,14.70
2023-05-05T03:56:06.339Z,8.25
2023-05-05T03:59:08.851Z,12.65
2023-05-05T04:02:10.565Z,15.35
2023-05-05T04:05:12.356Z,8.25
2023-05-05T04:08:15.157Z,8.27
2023-05-05T04:11:16.778Z,6.75
2023-05-05T04:14:18.462Z,9.77
2023-05-05T04:17:20.217Z,33.05
2023-05-05T04:20:22.013Z,13.57
2023-05-05T04:23:23.745Z,16.80
2023-05-05T04:26:25.511Z,9.98
2023-05-05T04:29:27.171Z,5.95
2023-05-05T04:32:28.946Z,9.35
2023-05-05T04:35:30.795Z,5.95
2023-05-05T04:38:32.579Z,6.03
2023-05-05T04:41:34.809Z,9.20
2023-05-05T04:44:36.725Z,12.88
2023-05-05T04:47:39.209Z,8.80
2023-05-05T04:50:41.059Z,8.05
2023-05-05T04:53:42.735Z,6.05
2023-05-05T04:56:44.439Z,8.07
2023-05-05T04:59:46.145Z,7.82
2023-05-05T05:02:47.849Z,9.40
2023-05-05T05:05:49.991Z,10.00
2023-05-05T05:08:52.056Z,10.15
2023-05-05T05:11:53.826Z,7.55
2023-05-05T05:14:55.520Z,8.10
2023-05-05T05:17:57.312Z,10.48
2023-05-05T05:20:58.965Z,6.60
2023-05-05T05:24:00.692Z,11.48
2023-05-05T05:27:03.035Z,16.85
2023-05-05T05:30:05.000Z,7.75
2023-05-05T05:33:07.935Z,10.40
2023-05-05T05:36:09.780Z,6.62
2023-05-05T05:39:11.477Z,10.82
2023-05-05T05:42:13.147Z,12.43
2023-05-05T05:45:14.921Z,8.05
2023-05-05T05:48:16.671Z,8.20
2023-05-05T05:51:18.406Z,8.80
2023-05-05T05:54:20.107Z,18.83
2023-05-05T05:57:23.777Z,12.73
2023-05-05T06:00:26.099Z,13.10
2023-05-05T06:03:28.024Z,7.50
2023-05-05T06:06:30.046Z,17.45
2023-05-05T06:09:31.786Z,49.15
2023-05-05T06:12:33.559Z,5.05
2023-05-05T06:15:35.313Z,9.25
2023-05-05T06:18:37.461Z,9.27
2023-05-05T06:21:39.240Z,5.05
2023-05-05T06:24:41.012Z,5.35
2023-05-05T06:27:42.773Z,6.85
2023-05-05T06:30:44.461Z,5.32
2023-05-05T06:33:46.301Z,20.00
2023-05-05T06:36:48.195Z,14.32
2023-05-05T06:39:50.057Z,8.00
2023-05-05T06:42:51.796Z,12.75
2023-05-05T06:45:53.516Z,8.73
2023-05-05T06:48:55.196Z,14.00
2023-05-05T06:51:57.062Z,7.60
2023-05-05T06:54:58.691Z,6.95
2023-05-05T06:58:00.322Z,6.28
2023-05-05T07:01:02.165Z,14.85
2023-05-05T07:04:04.135Z,10.93
2023-05-05T07:07:06.013Z,9.73
2023-05-05T07:10:10.028Z,7.93
2023-05-05T07:13:11.920Z,14.05
2023-05-05T07:16:13.681Z,10.40
2023-05-05T07:19:15.390Z,6.37
2023-05-05T07:22:17.071Z,6.60
2023-05-05T07:25:18.774Z,6.40
2023-05-05T07:28:22.320Z,5.20
2023-05-05T07:31:24.637Z,6.55
2023-05-05T07:34:26.372Z,5.95
2023-05-05T07:37:28.171Z,6.78
2023-05-05T07:40:30.129Z,6.97
2023-05-05T07:43:31.813Z,4.78
2023-05-05T07:46:33.777Z,5.95
2023-05-05T07:49:35.627Z,9.43
2023-05-05T07:52:45.080Z,8.20
2023-05-05T07:55:49.886Z,3.90
2023-05-05T07:58:51.579Z,5.75
2023-05-05T08:01:54.949Z,4.93
2023-05-05T08:04:56.773Z,7.05
2023-05-05T08:07:58.863Z,3.70
2023-05-05T08:11:01.273Z,5.10
2023-05-05T08:14:03.033Z,4.87
2023-05-05T08:17:04.641Z,3.65
2023-05-05T08:20:07.133Z,5.00
2023-05-05T08:23:08.941Z,5.50
2023-05-05T08:26:10.710Z,4.78
2023-05-05T08:29:12.490Z,9.70
2023-05-05T08:32:16.276Z,8.55
2023-05-05T08:35:18.285Z,7.35
2023-05-05T08:38:19.994Z,4.10
2023-05-05T08:41:21.866Z,4.70
2023-05-05T08:44:23.647Z,6.62
2023-05-05T08:47:25.463Z,5.62
2023-05-05T08:50:28.686Z,28.42
2023-05-05T08:53:44.434Z,6.93
2023-05-05T08:56:50.069Z,7.82
2023-05-05T09:02:57.332Z,7.68
2023-05-05T09:05:59.437Z,4.90
2023-05-05T09:09:01.742Z,8.10
2023-05-05T09:12:03.915Z,6.55
2023-05-05T09:15:18.918Z,16.77
2023-05-05T09:18:20.534Z,6.03
2023-05-05T09:21:24.741Z,24.37
2023-05-05T09:24:26.790Z,5.10
2023-05-05T09:27:28.486Z,6.35
2023-05-05T09:30:30.222Z,5.15
2023-05-05T09:33:32.094Z,7.90
2023-05-05T09:36:44.888Z,4.30
2023-05-05T09:39:54.479Z,6.87
2023-05-05T09:43:07.149Z,4.90
2023-05-05T09:46:08.956Z,10.57
2023-05-05T09:49:20.126Z,12.55
2023-05-05T09:52:21.961Z,6.57
2023-05-05T09:55:25.105Z,17.00
2023-05-05T09:58:31.080Z,8.40
2023-05-05T10:01:32.879Z,5.40
2023-05-05T10:04:34.765Z,3.97
2023-05-05T10:07:37.565Z,7.37
2023-05-05T10:10:58.330Z,8.48
2023-05-05T10:14:00.268Z,9.93
2023-05-05T10:17:03.108Z,7.18
2023-05-05T10:20:07.530Z,6.47
2023-05-05T10:23:14.207Z,11.70
2023-05-05T10:26:19.691Z,9.23
2023-05-05T10:29:39.239Z,8.07
2023-05-05T10:32:57.312Z,5.28
2023-05-05T10:36:07.975Z,7.97
2023-05-05T10:39:11.220Z,11.20
2023-05-05T10:42:15.776Z,16.10
2023-05-05T10:45:17.685Z,6.40
2023-05-05T10:48:27.956Z,6.05
2023-05-05T10:51:40.609Z,4.87
2023-05-05T10:54:46.685Z,7.40
2023-05-05T10:57:53.232Z,7.75
2023-05-05T11:00:55.066Z,3.00
2023-05-05T11:04:22.776Z,4.28
2023-05-05T11:07:24.561Z,6.00
2023-05-05T11:10:26.456Z,8.00
2023-05-05T11:13:28.573Z,6.05
2023-05-05T11:16:44.321Z,5.03
2023-05-05T11:19:47.715Z,8.18
2023-05-05T11:23:05.027Z,11.02
2023-05-05T11:26:06.998Z,6.50
2023-05-05T11:29:08.765Z,5.68
2023-05-05T11:32:11.979Z,5.35
2023-05-05T11:35:15.417Z,11.10
2023-05-05T11:38:20.911Z,16.65
2023-05-05T11:41:35.803Z,8.70
2023-05-05T11:44:37.758Z,5.43
2023-05-05T11:47:39.696Z,6.12
2023-05-05T11:50:41.905Z,5.32
2023-05-05T11:53:48.132Z,4.60
2023-05-05T11:56:51.364Z,6.50
2023-05-05T11:59:54.736Z,2.83
2023-05-05T12:02:57.441Z,12.00
2023-05-05T12:05:59.363Z,5.68
2023-05-05T12:09:01.401Z,8.77
2023-05-05T12:12:03.405Z,7.00
2023-05-05T12:15:06.108Z,3.75
2023-05-05T12:18:18.688Z,7.47
2023-05-05T12:21:21.969Z,7.60
2023-05-05T12:24:23.913Z,5.25
2023-05-05T12:27:27.328Z,9.98
2023-05-05T12:30:29.041Z,4.85
2023-05-05T12:33:38.324Z,26.45
2023-05-05T12:36:40.198Z,8.25
2023-05-05T12:39:41.955Z,5.32
2023-05-05T12:42:46.233Z,4.03
2023-05-05T12:45:49.470Z,4.62
2023-05-05T12:49:07.154Z,6.75
2023-05-05T12:52:10.107Z,6.70
2023-05-05T12:55:12.386Z,5.22
2023-05-05T12:58:14.085Z,17.65
2023-05-05T13:01:15.814Z,6.22
2023-05-05T13:04:18.192Z,2.62
2023-05-05T13:07:23.016Z,10.20
2023-05-05T13:10:28.469Z,6.28
2023-05-05T13:13:32.269Z,7.57
2023-05-05T13:16:34.246Z,9.63
2023-05-05T13:19:41.762Z,4.12
2023-05-05T13:22:43.553Z,11.07
2023-05-05T13:25:45.358Z,9.38
2023-05-05T13:28:47.031Z,3.80
2023-05-05T13:31:48.969Z,2.05
2023-05-05T13:34:50.820Z,5.18
2023-05-05T13:37:52.490Z,2.95
2023-05-05T13:40:54.205Z,3.22
2023-05-05T13:43:56.617Z,4.97
2023-05-05T13:46:59.514Z,4.68
2023-05-05T13:50:02.053Z,3.75
2023-05-05T13:53:03.946Z,8.57
2023-05-05T13:56:06.838Z,3.55
2023-05-05T13:59:09.242Z,4.15
2023-05-05T14:02:11.043Z,6.68
2023-05-05T14:05:14.745Z,5.62
2023-05-05T14:08:16.892Z,4.75
2023-05-05T14:11:20.678Z,9.77
2023-05-05T14:14:22.839Z,3.95
2023-05-05T14:17:25.382Z,3.28
2023-05-05T14:20:27.794Z,6.10
2023-05-05T14:23:29.415Z,6.03
2023-05-05T14:26:31.145Z,8.50
2023-05-05T14:29:32.918Z,6.57
2023-05-05T14:32:34.712Z,7.93
2023-05-05T14:35:36.597Z,5.60
2023-05-05T14:38:39.557Z,4.07
2023-05-05T14:41:41.215Z,3.10
2023-05-05T14:44:42.992Z,3.62
2023-05-05T14:47:44.809Z,3.20
2023-05-05T14:50:46.551Z,2.83
2023-05-05T14:53:48.436Z,4.60
2023-05-05T14:56:50.269Z,6.35
2023-05-05T14:59:53.105Z,7.43
2023-05-05T15:02:54.871Z,2.72
2023-05-05T15:05:56.732Z,8.05
2023-05-05T15:08:58.595Z,16.02
2023-05-05T15:12:00.384Z,5.78
2023-05-05T15:15:03.518Z,6.85
2023-05-05T15:18:05.790Z,3.20
2023-05-05T15:21:08.524Z,7.78
2023-05-05T15:24:10.625Z,8.82
2023-05-05T15:27:12.427Z,4.50
2023-05-05T15:30:14.437Z,6.37
2023-05-05T15:33:16.877Z,4.53
2023-05-05T15:36:22.607Z,6.82
2023-05-05T15:39:24.494Z,14.68
2023-05-05T15:42:26.796Z,11.50
2023-05-05T15:45:28.584Z,7.47
2023-05-05T15:48:30.460Z,8.30
2023-05-05T15:51:32.370Z,6.15
2023-05-05T15:54:34.465Z,6.45
2023-05-05T15:57:36.291Z,13.68
2023-05-05T16:00:39.076Z,12.48
2023-05-05T16:03:41.267Z,9.95
2023-05-05T16:06:43.201Z,5.22
2023-05-05T16:09:45.062Z,5.97
2023-05-05T16:12:46.891Z,10.63
2023-05-05T16:15:48.639Z,2.70
2023-05-05T16:18:50.639Z,5.37
2023-05-05T16:21:56.526Z,10.30
2023-05-05T16:24:58.256Z,12.65
2023-05-05T16:28:01.651Z,4.85
2023-05-05T16:31:03.545Z,4.82
2023-05-05T16:34:05.383Z,7.60
2023-05-05T16:37:07.106Z,5.50
2023-05-05T16:40:09.475Z,7.20
2023-05-05T16:43:11.199Z,11.68
2023-05-05T16:46:12.938Z,3.72
2023-05-05T16:49:14.680Z,10.80
2023-05-05T16:52:16.491Z,5.80
2023-05-05T16:55:18.317Z,3.97
2023-05-05T16:58:20.915Z,5.80
2023-05-05T17:01:22.756Z,15.75
2023-05-05T17:04:24.592Z,9.20
2023-05-05T17:07:26.265Z,9.93
2023-05-05T17:10:27.991Z,6.68
2023-05-05T17:13:29.677Z,3.10
2023-05-05T17:16:31.731Z,16.42
2023-05-05T17:19:33.422Z,9.35
2023-05-05T17:22:35.099Z,11.32
2023-05-05T17:25:36.797Z,10.02
2023-05-05T17:28:38.492Z,9.23
2023-05-05T17:31:40.259Z,16.08
2023-05-05T17:34:41.998Z,17.45
2023-05-05T17:37:43.931Z,13.93
2023-05-05T17:40:45.643Z,13.32
2023-05-05T17:43:48.577Z,6.68
2023-05-05T17:46:50.676Z,10.35
2023-05-05T17:49:54.198Z,8.60
2023-05-05T17:52:56.716Z,5.18
2023-05-05T17:55:58.415Z,8.82
2023-05-05T17:59:00.728Z,9.80
2023-05-05T18:02:02.387Z,14.38
2023-05-05T18:05:04.327Z,10.82
2023-05-05T18:08:06.837Z,11.43
2023-05-05T18:11:08.690Z,11.07
2023-05-05T18:14:10.814Z,15.40
2023-05-05T18:17:12.554Z,22.05
2023-05-05T18:20:14.274Z,59.08
2023-05-05T18:23:15.984Z,47.15
2023-05-05T18:26:17.712Z,49.08
2023-05-05T18:29:21.555Z,26.12
2023-05-05T18:32:23.852Z,23.77
2023-05-05T18:35:26.007Z,25.12
2023-05-05T18:38:27.719Z,16.62
2023-05-05T18:41:29.357Z,28.55
2023-05-05T18:44:32.840Z,26.62
2023-05-05T18:47:37.044Z,23.83
2023-05-05T18:50:38.888Z,20.33
2023-05-05T18:53:41.541Z,32.67
2023-05-05T18:56:43.339Z,21.33
2023-05-05T18:59:45.032Z,23.33
2023-05-05T19:02:46.799Z,19.15
2023-05-05T19:05:48.495Z,23.92
2023-05-05T19:08:50.296Z,15.63
2023-05-05T19:11:52.015Z,14.45
2023-05-05T19:14:53.664Z,14.07
2023-05-05T19:17:55.510Z,19.50
2023-05-05T19:20:57.227Z,16.73
2023-05-05T19:23:58.969Z,12.37
2023-05-05T19:27:02.182Z,14.18
2023-05-05T19:30:05.238Z,15.50
2023-05-05T19:33:07.155Z,18.02
2023-05-05T19:36:08.957Z,19.83
2023-05-05T19:39:10.669Z,23.20
2023-05-05T19:42:12.539Z,19.85
2023-05-05T19:45:14.251Z,24.15
2023-05-05T19:48:16.256Z,18.00
2023-05-05T19:51:18.016Z,19.42
2023-05-05T19:54:19.973Z,12.88
2023-05-05T19:57:22.349Z,13.15
2023-05-05T20:00:24.148Z,15.98
2023-05-05T20:03:25.925Z,15.45
2023-05-05T20:06:27.629Z,14.30
2023-05-05T20:09:29.535Z,15.65
2023-05-05T20:12:31.255Z,18.42
2023-05-05T20:15:33.609Z,27.90
2023-05-05T20:18:35.280Z,21.65
2023-05-05T20:21:37.024Z,20.42
2023-05-05T20:24:38.833Z,14.05
2023-05-05T20:27:40.763Z,15.13
2023-05-05T20:30:42.502Z,15.98
2023-05-05T20:33:44.309Z,10.80
2023-05-05T20:36:46.256Z,11.05
2023-05-05T20:39:48.127Z,14.32
2023-05-05T20:42:50.497Z,16.55
2023-05-05T20:45:52.385Z,15.38
2023-05-05T20:48:54.152Z,14.82
2023-05-05T20:51:58.165Z,16.50
2023-05-05T20:54:59.846Z,9.32
2023-05-05T20:58:01.630Z,9.48
2023-05-05T21:01:03.414Z,14.07
2023-05-05T21:04:05.431Z,8.75
2023-05-05T21:07:07.214Z,10.43
2023-05-05T21:10:11.255Z,11.35
2023-05-05T21:13:13.300Z,14.02
2023-05-05T21:16:15.031Z,13.05
2023-05-05T21:19:16.846Z,16.08
2023-05-05T21:22:18.727Z,20.40
2023-05-05T21:25:21.217Z,19.00
2023-05-05T21:28:22.941Z,19.35
2023-05-05T21:31:25.764Z,22.65
2023-05-05T21:34:27.421Z,22.42
2023-05-05T21:37:29.136Z,23.40
2023-05-05T21:40:31.001Z,15.63
2023-05-05T21:43:32.769Z,22.52
2023-05-05T21:46:34.565Z,25.85
2023-05-05T21:49:36.269Z,21.65
2023-05-05T21:52:37.910Z,29.20
2023-05-05T21:55:39.597Z,20.30
2023-05-05T21:58:41.330Z,27.15
2023-05-05T22:01:43.065Z,23.70
2023-05-05T22:04:48.618Z,25.05
2023-05-05T22:07:50.530Z,20.23
2023-05-05T22:10:52.249Z,20.55
2023-05-05T22:13:53.981Z,19.58
2023-05-05T22:16:55.894Z,29.42
2023-05-05T22:19:57.595Z,25.27
2023-05-05T22:23:00.888Z,21.73
2023-05-05T22:26:03.251Z,22.08
2023-05-05T22:29:05.894Z,20.98
2023-05-05T22:32:20.617Z,20.70
2023-05-05T22:35:23.371Z,21.73
2023-05-05T22:38:26.136Z,18.27
2023-05-05T22:41:28.866Z,24.90
2023-05-05T22:44:30.598Z,24.23
2023-05-05T22:47:32.327Z,25.27
2023-05-05T22:50:35.583Z,22.20
2023-05-05T22:53:38.581Z,20.35
2023-05-05T22:56:40.631Z,23.98
2023-05-05T22:59:42.289Z,22.45
2023-05-05T23:02:44.259Z,20.02
2023-05-05T23:05:46.109Z,20.58
2023-05-05T23:08:48.990Z,22.83
2023-05-05T23:11:50.599Z,23.38
2023-05-05T23:14:52.479Z,25.05
2023-05-05T23:17:54.353Z,25.30
2023-05-05T23:20:57.131Z,20.35
2023-05-05T23:23:59.135Z,18.85
2023-05-05T23:27:04.189Z,21.52
2023-05-05T23:30:07.870Z,24.33
2023-05-05T23:33:09.568Z,19.75
2023-05-05T23:36:11.319Z,19.00
2023-05-05T23:39:13.043Z,16.02
2023-05-05T23:42:14.746Z,21.95
2023-05-05T23:45:19.188Z,15.32
2023-05-05T23:48:21.353Z,13.15
2023-05-05T23:51:23.078Z,10.55
2023-05-05T23:54:24.791Z,12.68
2023-05-05T23:57:26.889Z,13.77
